Morris, Alabama
Current Conditions -  °F | °C
As of 5:53 AM on Friday 24 Oct 2014 (Local Time) from KBHM Reporting Station
Broken Clouds Broken Clouds  
Wind Chill: 51°   Ceiling: 20000
Heat Index: 51°   Visibility: 10mi
Dew Point: 47°   Wind: 6mph
Humidity: 86%   Direction: 50°NE
Pressure: 30.08"   Gusts: NA
Location:  33.75°N, 86.81°W
Report Text: KBHM 241053Z 05005KT 10SM BKN200 11/08 A3008 RMK AO2 SLP183 T01060083
Loading
Personal Weather Stations






























Interactive Weather Map New forecast layout! Learn more

10-Day Weather Forecast

Advertisements
Track Severe Weather on mobile